sensor_id;sensor_type;location;lat;lon;timestamp;temperature;humidity
44729;DHT22;30457;53.590;9.922;2023-06-22T00:03:48;24.70;43.30
44729;DHT22;30457;53.590;9.922;2023-06-22T00:08:14;24.60;43.30
44729;DHT22;30457;53.590;9.922;2023-06-22T00:12:40;24.60;43.60
44729;DHT22;30457;53.590;9.922;2023-06-22T00:17:06;24.50;43.70
44729;DHT22;30457;53.590;9.922;2023-06-22T00:21:31;24.40;43.70
44729;DHT22;30457;53.590;9.922;2023-06-22T00:25:57;24.30;44.00
44729;DHT22;30457;53.590;9.922;2023-06-22T00:30:22;24.30;44.30
44729;DHT22;30457;53.590;9.922;2023-06-22T00:34:48;24.30;44.60
44729;DHT22;30457;53.590;9.922;2023-06-22T00:39:14;24.20;44.70
44729;DHT22;30457;53.590;9.922;2023-06-22T00:43:39;24.10;44.50
44729;DHT22;30457;53.590;9.922;2023-06-22T00:48:08;24.10;44.80
44729;DHT22;30457;53.590;9.922;2023-06-22T00:52:33;24.10;45.20
44729;DHT22;30457;53.590;9.922;2023-06-22T00:57:00;24.10;45.20
44729;DHT22;30457;53.590;9.922;2023-06-22T01:01:27;24.00;45.60
44729;DHT22;30457;53.590;9.922;2023-06-22T01:06:02;24.00;45.80
44729;DHT22;30457;53.590;9.922;2023-06-22T01:10:50;24.00;45.90
44729;DHT22;30457;53.590;9.922;2023-06-22T01:15:27;23.90;45.70
44729;DHT22;30457;53.590;9.922;2023-06-22T01:19:57;23.90;45.90
44729;DHT22;30457;53.590;9.922;2023-06-22T01:24:32;23.90;46.10
44729;DHT22;30457;53.590;9.922;2023-06-22T01:29:03;23.90;46.30
44729;DHT22;30457;53.590;9.922;2023-06-22T01:33:35;23.80;46.00
44729;DHT22;30457;53.590;9.922;2023-06-22T01:38:02;23.80;46.20
44729;DHT22;30457;53.590;9.922;2023-06-22T01:42:28;23.80;46.30
44729;DHT22;30457;53.590;9.922;2023-06-22T01:46:54;23.80;46.20
44729;DHT22;30457;53.590;9.922;2023-06-22T01:51:20;23.70;46.60
44729;DHT22;30457;53.590;9.922;2023-06-22T01:55:46;23.70;46.50
44729;DHT22;30457;53.590;9.922;2023-06-22T02:00:14;23.60;46.40
44729;DHT22;30457;53.590;9.922;2023-06-22T02:04:48;23.60;46.70
44729;DHT22;30457;53.590;9.922;2023-06-22T02:09:17;23.60;46.80
44729;DHT22;30457;53.590;9.922;2023-06-22T02:13:45;23.50;46.90
44729;DHT22;30457;53.590;9.922;2023-06-22T02:18:11;23.50;47.10
44729;DHT22;30457;53.590;9.922;2023-06-22T02:22:37;23.50;47.10
44729;DHT22;30457;53.590;9.922;2023-06-22T02:27:03;23.40;47.00
44729;DHT22;30457;53.590;9.922;2023-06-22T02:31:31;23.40;47.10
44729;DHT22;30457;53.590;9.922;2023-06-22T02:35:57;23.30;47.10
44729;DHT22;30457;53.590;9.922;2023-06-22T02:40:22;23.30;47.10
44729;DHT22;30457;53.590;9.922;2023-06-22T02:44:48;23.30;47.10
44729;DHT22;30457;53.590;9.922;2023-06-22T02:49:14;23.20;47.20
44729;DHT22;30457;53.590;9.922;2023-06-22T02:53:40;23.20;47.30
44729;DHT22;30457;53.590;9.922;2023-06-22T02:58:09;23.20;47.30
44729;DHT22;30457;53.590;9.922;2023-06-22T03:02:37;23.10;47.40
44729;DHT22;30457;53.590;9.922;2023-06-22T03:07:03;23.10;47.40
44729;DHT22;30457;53.590;9.922;2023-06-22T03:11:31;23.00;47.40
44729;DHT22;30457;53.590;9.922;2023-06-22T03:15:57;23.00;47.70
44729;DHT22;30457;53.590;9.922;2023-06-22T03:20:23;22.90;47.80
44729;DHT22;30457;53.590;9.922;2023-06-22T03:24:49;22.90;47.90
44729;DHT22;30457;53.590;9.922;2023-06-22T03:29:14;22.80;47.90
44729;DHT22;30457;53.590;9.922;2023-06-22T03:33:41;22.80;47.90
44729;DHT22;30457;53.590;9.922;2023-06-22T03:38:08;22.80;48.20
44729;DHT22;30457;53.590;9.922;2023-06-22T03:42:34;22.70;48.20
44729;DHT22;30457;53.590;9.922;2023-06-22T03:47:04;22.70;48.50
44729;DHT22;30457;53.590;9.922;2023-06-22T03:51:32;22.70;49.20
44729;DHT22;30457;53.590;9.922;2023-06-22T03:55:58;22.70;48.90
44729;DHT22;30457;53.590;9.922;2023-06-22T04:00:23;22.80;49.00
44729;DHT22;30457;53.590;9.922;2023-06-22T04:04:49;22.80;49.10
44729;DHT22;30457;53.590;9.922;2023-06-22T04:09:15;22.80;49.40
44729;DHT22;30457;53.590;9.922;2023-06-22T04:13:40;22.80;49.50
44729;DHT22;30457;53.590;9.922;2023-06-22T04:18:06;22.90;49.60
44729;DHT22;30457;53.590;9.922;2023-06-22T04:22:31;23.00;49.50
44729;DHT22;30457;53.590;9.922;2023-06-22T04:26:57;23.00;49.20
44729;DHT22;30457;53.590;9.922;2023-06-22T04:31:22;23.10;49.70
44729;DHT22;30457;53.590;9.922;2023-06-22T04:35:58;23.10;49.60
44729;DHT22;30457;53.590;9.922;2023-06-22T04:40:24;23.20;49.50
44729;DHT22;30457;53.590;9.922;2023-06-22T04:44:49;23.20;49.70
44729;DHT22;30457;53.590;9.922;2023-06-22T04:49:15;23.30;49.70
44729;DHT22;30457;53.590;9.922;2023-06-22T04:53:40;23.40;49.70
44729;DHT22;30457;53.590;9.922;2023-06-22T04:58:06;23.50;49.70
44729;DHT22;30457;53.590;9.922;2023-06-22T05:02:32;23.50;49.40
44729;DHT22;30457;53.590;9.922;2023-06-22T05:06:59;23.60;49.30
44729;DHT22;30457;53.590;9.922;2023-06-22T05:11:28;23.70;49.70
44729;DHT22;30457;53.590;9.922;2023-06-22T05:15:54;23.80;49.30
44729;DHT22;30457;53.590;9.922;2023-06-22T05:20:27;23.90;48.70
44729;DHT22;30457;53.590;9.922;2023-06-22T05:24:52;24.00;48.30
44729;DHT22;30457;53.590;9.922;2023-06-22T05:29:18;24.10;48.30
44729;DHT22;30457;53.590;9.922;2023-06-22T05:33:44;24.30;48.20
44729;DHT22;30457;53.590;9.922;2023-06-22T05:38:09;24.40;48.00
44729;DHT22;30457;53.590;9.922;2023-06-22T05:42:35;24.50;47.60
44729;DHT22;30457;53.590;9.922;2023-06-22T05:47:01;24.60;47.00
44729;DHT22;30457;53.590;9.922;2023-06-22T05:51:26;24.70;46.40
44729;DHT22;30457;53.590;9.922;2023-06-22T05:55:52;24.80;45.80
44729;DHT22;30457;53.590;9.922;2023-06-22T06:00:18;25.00;46.10
44729;DHT22;30457;53.590;9.922;2023-06-22T06:04:44;25.00;45.80
44729;DHT22;30457;53.590;9.922;2023-06-22T06:09:09;25.20;45.70
44729;DHT22;30457;53.590;9.922;2023-06-22T06:13:36;25.20;45.50
44729;DHT22;30457;53.590;9.922;2023-06-22T06:18:02;25.40;45.50
44729;DHT22;30457;53.590;9.922;2023-06-22T06:22:30;25.60;45.40
44729;DHT22;30457;53.590;9.922;2023-06-22T06:26:55;25.70;45.50
44729;DHT22;30457;53.590;9.922;2023-06-22T06:31:21;25.90;45.00
44729;DHT22;30457;53.590;9.922;2023-06-22T06:35:47;26.00;44.80
44729;DHT22;30457;53.590;9.922;2023-06-22T06:40:13;26.20;45.20
44729;DHT22;30457;53.590;9.922;2023-06-22T06:44:39;26.30;44.40
44729;DHT22;30457;53.590;9.922;2023-06-22T06:49:04;26.40;44.10
44729;DHT22;30457;53.590;9.922;2023-06-22T06:53:30;26.40;43.70
44729;DHT22;30457;53.590;9.922;2023-06-22T06:57:56;26.40;44.20
44729;DHT22;30457;53.590;9.922;2023-06-22T07:02:22;26.40;43.70
44729;DHT22;30457;53.590;9.922;2023-06-22T07:06:48;26.50;44.00
44729;DHT22;30457;53.590;9.922;2023-06-22T07:11:13;26.50;43.90
44729;DHT22;30457;53.590;9.922;2023-06-22T07:15:39;26.70;44.60
44729;DHT22;30457;53.590;9.922;2023-06-22T07:20:05;26.80;43.90
44729;DHT22;30457;53.590;9.922;2023-06-22T07:24:35;27.00;43.80
44729;DHT22;30457;53.590;9.922;2023-06-22T07:29:02;27.20;43.50
44729;DHT22;30457;53.590;9.922;2023-06-22T07:33:28;27.50;43.20
44729;DHT22;30457;53.590;9.922;2023-06-22T07:37:53;27.60;42.80
44729;DHT22;30457;53.590;9.922;2023-06-22T07:42:19;27.80;42.20
44729;DHT22;30457;53.590;9.922;2023-06-22T07:46:45;27.90;41.80
44729;DHT22;30457;53.590;9.922;2023-06-22T07:51:10;28.10;41.30
44729;DHT22;30457;53.590;9.922;2023-06-22T07:55:38;28.20;41.30
44729;DHT22;30457;53.590;9.922;2023-06-22T08:00:05;28.30;41.60
44729;DHT22;30457;53.590;9.922;2023-06-22T08:04:42;28.50;41.20
44729;DHT22;30457;53.590;9.922;2023-06-22T08:09:08;28.60;41.30
44729;DHT22;30457;53.590;9.922;2023-06-22T08:13:33;28.80;41.20
44729;DHT22;30457;53.590;9.922;2023-06-22T08:17:59;28.90;40.50
44729;DHT22;30457;53.590;9.922;2023-06-22T08:22:26;29.00;39.80
44729;DHT22;30457;53.590;9.922;2023-06-22T08:26:51;29.10;40.50
44729;DHT22;30457;53.590;9.922;2023-06-22T08:31:17;29.20;40.50
44729;DHT22;30457;53.590;9.922;2023-06-22T08:35:43;29.40;39.70
44729;DHT22;30457;53.590;9.922;2023-06-22T08:40:09;29.60;39.60
44729;DHT22;30457;53.590;9.922;2023-06-22T08:44:35;29.80;39.40
44729;DHT22;30457;53.590;9.922;2023-06-22T08:49:01;30.00;39.00
44729;DHT22;30457;53.590;9.922;2023-06-22T08:53:26;30.10;38.80
44729;DHT22;30457;53.590;9.922;2023-06-22T08:57:52;30.30;38.70
44729;DHT22;30457;53.590;9.922;2023-06-22T09:02:18;30.50;38.50
44729;DHT22;30457;53.590;9.922;2023-06-22T09:06:44;30.60;38.60
44729;DHT22;30457;53.590;9.922;2023-06-22T09:11:10;30.80;38.30
44729;DHT22;30457;53.590;9.922;2023-06-22T09:15:36;30.90;37.70
44729;DHT22;30457;53.590;9.922;2023-06-22T09:20:01;31.10;37.60
44729;DHT22;30457;53.590;9.922;2023-06-22T09:24:30;31.30;37.80
44729;DHT22;30457;53.590;9.922;2023-06-22T09:28:56;31.50;36.90
44729;DHT22;30457;53.590;9.922;2023-06-22T09:33:22;31.60;36.70
44729;DHT22;30457;53.590;9.922;2023-06-22T09:37:47;31.90;36.80
44729;DHT22;30457;53.590;9.922;2023-06-22T09:42:13;32.10;36.00
44729;DHT22;30457;53.590;9.922;2023-06-22T09:46:38;32.20;36.30
44729;DHT22;30457;53.590;9.922;2023-06-22T09:51:04;32.40;35.70
44729;DHT22;30457;53.590;9.922;2023-06-22T09:55:30;32.60;35.90
44729;DHT22;30457;53.590;9.922;2023-06-22T09:59:55;32.80;34.60
44729;DHT22;30457;53.590;9.922;2023-06-22T10:04:21;33.00;34.20
44729;DHT22;30457;53.590;9.922;2023-06-22T10:08:47;33.10;34.10
44729;DHT22;30457;53.590;9.922;2023-06-22T10:13:13;33.30;34.20
44729;DHT22;30457;53.590;9.922;2023-06-22T10:17:40;33.50;33.70
44729;DHT22;30457;53.590;9.922;2023-06-22T10:22:05;33.60;33.10
44729;DHT22;30457;53.590;9.922;2023-06-22T10:26:35;33.80;33.60
44729;DHT22;30457;53.590;9.922;2023-06-22T10:31:01;33.90;32.30
44729;DHT22;30457;53.590;9.922;2023-06-22T10:35:27;34.10;32.30
44729;DHT22;30457;53.590;9.922;2023-06-22T10:39:52;34.20;31.80
44729;DHT22;30457;53.590;9.922;2023-06-22T10:44:18;34.40;32.30
44729;DHT22;30457;53.590;9.922;2023-06-22T10:48:43;34.50;32.10
44729;DHT22;30457;53.590;9.922;2023-06-22T10:53:09;34.60;32.50
44729;DHT22;30457;53.590;9.922;2023-06-22T10:57:34;34.80;32.00
44729;DHT22;30457;53.590;9.922;2023-06-22T11:02:00;35.00;31.70
44729;DHT22;30457;53.590;9.922;2023-06-22T11:06:26;35.00;30.30
44729;DHT22;30457;53.590;9.922;2023-06-22T11:10:51;35.10;30.70
44729;DHT22;30457;53.590;9.922;2023-06-22T11:15:17;35.10;30.80
44729;DHT22;30457;53.590;9.922;2023-06-22T11:19:44;35.10;31.00
44729;DHT22;30457;53.590;9.922;2023-06-22T11:24:10;35.30;31.30
44729;DHT22;30457;53.590;9.922;2023-06-22T11:28:36;35.50;31.50
44729;DHT22;30457;53.590;9.922;2023-06-22T11:33:01;35.50;29.70
44729;DHT22;30457;53.590;9.922;2023-06-22T11:37:27;35.50;29.50
44729;DHT22;30457;53.590;9.922;2023-06-22T11:41:52;35.30;29.70
44729;DHT22;30457;53.590;9.922;2023-06-22T11:46:18;35.20;29.60
44729;DHT22;30457;53.590;9.922;2023-06-22T11:50:44;35.10;30.50
44729;DHT22;30457;53.590;9.922;2023-06-22T11:55:10;35.10;30.40
44729;DHT22;30457;53.590;9.922;2023-06-22T11:59:35;35.20;30.40
44729;DHT22;30457;53.590;9.922;2023-06-22T12:04:01;35.30;30.00
44729;DHT22;30457;53.590;9.922;2023-06-22T12:08:26;35.30;30.50
44729;DHT22;30457;53.590;9.922;2023-06-22T12:12:52;35.40;30.10
44729;DHT22;30457;53.590;9.922;2023-06-22T12:17:18;35.40;30.50
44729;DHT22;30457;53.590;9.922;2023-06-22T12:21:43;35.40;30.80
44729;DHT22;30457;53.590;9.922;2023-06-22T12:26:11;35.50;30.70
44729;DHT22;30457;53.590;9.922;2023-06-22T12:30:36;35.50;30.60
44729;DHT22;30457;53.590;9.922;2023-06-22T12:35:02;35.60;30.20
44729;DHT22;30457;53.590;9.922;2023-06-22T12:39:28;35.60;29.70
44729;DHT22;30457;53.590;9.922;2023-06-22T12:43:53;35.60;29.60
44729;DHT22;30457;53.590;9.922;2023-06-22T12:48:19;35.70;29.40
44729;DHT22;30457;53.590;9.922;2023-06-22T12:52:45;35.70;29.20
44729;DHT22;30457;53.590;9.922;2023-06-22T12:57:10;35.60;29.30
44729;DHT22;30457;53.590;9.922;2023-06-22T13:01:36;35.60;29.50
44729;DHT22;30457;53.590;9.922;2023-06-22T13:06:02;35.60;29.80
44729;DHT22;30457;53.590;9.922;2023-06-22T13:10:28;35.50;29.90
44729;DHT22;30457;53.590;9.922;2023-06-22T13:14:54;35.60;30.20
44729;DHT22;30457;53.590;9.922;2023-06-22T13:19:20;35.70;29.90
44729;DHT22;30457;53.590;9.922;2023-06-22T13:23:45;35.80;29.50
44729;DHT22;30457;53.590;9.922;2023-06-22T13:28:11;35.80;29.70
44729;DHT22;30457;53.590;9.922;2023-06-22T13:32:38;35.70;29.90
44729;DHT22;30457;53.590;9.922;2023-06-22T13:37:06;35.80;29.60
44729;DHT22;30457;53.590;9.922;2023-06-22T13:41:32;35.80;29.60
44729;DHT22;30457;53.590;9.922;2023-06-22T13:45:58;35.80;29.70
44729;DHT22;30457;53.590;9.922;2023-06-22T13:50:24;35.70;29.20
44729;DHT22;30457;53.590;9.922;2023-06-22T13:54:49;35.60;29.50
44729;DHT22;30457;53.590;9.922;2023-06-22T13:59:15;35.60;29.90
44729;DHT22;30457;53.590;9.922;2023-06-22T14:03:40;35.50;29.60
44729;DHT22;30457;53.590;9.922;2023-06-22T14:08:06;35.50;29.90
44729;DHT22;30457;53.590;9.922;2023-06-22T14:12:32;35.50;30.00
44729;DHT22;30457;53.590;9.922;2023-06-22T14:16:57;35.50;29.80
44729;DHT22;30457;53.590;9.922;2023-06-22T14:21:23;35.40;29.60
44729;DHT22;30457;53.590;9.922;2023-06-22T14:25:48;35.40;29.70
44729;DHT22;30457;53.590;9.922;2023-06-22T14:30:14;35.30;29.30
44729;DHT22;30457;53.590;9.922;2023-06-22T14:34:40;35.20;29.50
44729;DHT22;30457;53.590;9.922;2023-06-22T14:39:06;35.00;29.20
44729;DHT22;30457;53.590;9.922;2023-06-22T14:43:31;34.90;29.60
44729;DHT22;30457;53.590;9.922;2023-06-22T14:47:57;34.70;29.60
44729;DHT22;30457;53.590;9.922;2023-06-22T14:52:22;34.50;29.60
44729;DHT22;30457;53.590;9.922;2023-06-22T14:56:48;34.30;29.90
44729;DHT22;30457;53.590;9.922;2023-06-22T15:01:16;34.10;30.40
44729;DHT22;30457;53.590;9.922;2023-06-22T15:05:42;34.00;30.50
44729;DHT22;30457;53.590;9.922;2023-06-22T15:10:08;33.90;30.60
44729;DHT22;30457;53.590;9.922;2023-06-22T15:14:34;33.80;30.70
44729;DHT22;30457;53.590;9.922;2023-06-22T15:19:00;33.60;30.60
44729;DHT22;30457;53.590;9.922;2023-06-22T15:23:25;33.50;31.20
44729;DHT22;30457;53.590;9.922;2023-06-22T15:27:51;33.40;31.40
44729;DHT22;30457;53.590;9.922;2023-06-22T15:32:16;33.30;31.20
44729;DHT22;30457;53.590;9.922;2023-06-22T15:36:42;33.20;32.10
44729;DHT22;30457;53.590;9.922;2023-06-22T15:41:07;33.00;31.30
44729;DHT22;30457;53.590;9.922;2023-06-22T15:45:33;32.90;31.50
44729;DHT22;30457;53.590;9.922;2023-06-22T15:49:59;32.70;31.70
44729;DHT22;30457;53.590;9.922;2023-06-22T15:54:24;32.70;31.90
44729;DHT22;30457;53.590;9.922;2023-06-22T15:58:50;32.50;32.20
44729;DHT22;30457;53.590;9.922;2023-06-22T16:03:16;32.50;32.30
44729;DHT22;30457;53.590;9.922;2023-06-22T16:07:41;32.40;32.70
44729;DHT22;30457;53.590;9.922;2023-06-22T16:12:07;32.40;32.90
44729;DHT22;30457;53.590;9.922;2023-06-22T16:16:33;32.30;33.00
44729;DHT22;30457;53.590;9.922;2023-06-22T16:21:00;32.30;33.00
44729;DHT22;30457;53.590;9.922;2023-06-22T16:25:26;32.20;33.00
44729;DHT22;30457;53.590;9.922;2023-06-22T16:29:52;32.20;33.10
44729;DHT22;30457;53.590;9.922;2023-06-22T16:34:17;32.10;33.20
44729;DHT22;30457;53.590;9.922;2023-06-22T16:38:43;32.00;33.40
44729;DHT22;30457;53.590;9.922;2023-06-22T16:43:08;31.90;33.30
44729;DHT22;30457;53.590;9.922;2023-06-22T16:47:34;31.80;33.30
44729;DHT22;30457;53.590;9.922;2023-06-22T16:52:00;31.70;33.40
44729;DHT22;30457;53.590;9.922;2023-06-22T16:56:26;31.60;33.50
44729;DHT22;30457;53.590;9.922;2023-06-22T17:00:53;31.60;33.60
44729;DHT22;30457;53.590;9.922;2023-06-22T17:05:19;31.50;33.80
44729;DHT22;30457;53.590;9.922;2023-06-22T17:09:46;31.50;33.40
44729;DHT22;30457;53.590;9.922;2023-06-22T17:14:12;31.30;33.60
44729;DHT22;30457;53.590;9.922;2023-06-22T17:18:39;31.20;33.70
44729;DHT22;30457;53.590;9.922;2023-06-22T17:23:05;31.10;33.70
44729;DHT22;30457;53.590;9.922;2023-06-22T17:27:33;31.00;33.90
44729;DHT22;30457;53.590;9.922;2023-06-22T17:31:59;30.90;34.00
44729;DHT22;30457;53.590;9.922;2023-06-22T17:36:25;30.80;34.10
44729;DHT22;30457;53.590;9.922;2023-06-22T17:40:51;30.70;34.20
44729;DHT22;30457;53.590;9.922;2023-06-22T17:45:21;30.60;34.40
44729;DHT22;30457;53.590;9.922;2023-06-22T17:49:47;30.50;34.30
44729;DHT22;30457;53.590;9.922;2023-06-22T17:54:13;30.40;34.20
44729;DHT22;30457;53.590;9.922;2023-06-22T17:58:39;30.20;33.60
44729;DHT22;30457;53.590;9.922;2023-06-22T18:03:05;30.10;33.70
44729;DHT22;30457;53.590;9.922;2023-06-22T18:07:33;29.90;33.50
44729;DHT22;30457;53.590;9.922;2023-06-22T18:12:01;29.70;33.70
44729;DHT22;30457;53.590;9.922;2023-06-22T18:16:30;29.60;33.40
44729;DHT22;30457;53.590;9.922;2023-06-22T18:20:59;29.40;33.50
44729;DHT22;30457;53.590;9.922;2023-06-22T18:25:27;29.20;33.40
44729;DHT22;30457;53.590;9.922;2023-06-22T18:29:56;29.10;33.80
44729;DHT22;30457;53.590;9.922;2023-06-22T18:34:24;29.00;33.90
44729;DHT22;30457;53.590;9.922;2023-06-22T18:38:51;28.90;34.00
44729;DHT22;30457;53.590;9.922;2023-06-22T18:43:22;28.80;34.30
44729;DHT22;30457;53.590;9.922;2023-06-22T18:48:04;28.70;34.10
44729;DHT22;30457;53.590;9.922;2023-06-22T18:52:30;28.60;34.30
44729;DHT22;30457;53.590;9.922;2023-06-22T18:56:57;28.60;34.20
44729;DHT22;30457;53.590;9.922;2023-06-22T19:01:23;28.50;34.30
44729;DHT22;30457;53.590;9.922;2023-06-22T19:05:49;28.40;34.40
44729;DHT22;30457;53.590;9.922;2023-06-22T19:10:28;28.40;34.00
44729;DHT22;30457;53.590;9.922;2023-06-22T19:15:02;28.30;34.10
44729;DHT22;30457;53.590;9.922;2023-06-22T19:19:28;28.20;34.50
44729;DHT22;30457;53.590;9.922;2023-06-22T19:23:53;28.10;34.20
44729;DHT22;30457;53.590;9.922;2023-06-22T19:28:19;28.00;34.10
44729;DHT22;30457;53.590;9.922;2023-06-22T19:32:45;27.90;33.90
44729;DHT22;30457;53.590;9.922;2023-06-22T19:37:16;27.90;34.00
44729;DHT22;30457;53.590;9.922;2023-06-22T19:41:45;27.80;33.90
44729;DHT22;30457;53.590;9.922;2023-06-22T19:46:11;27.70;33.90
44729;DHT22;30457;53.590;9.922;2023-06-22T19:50:38;27.60;33.20
44729;DHT22;30457;53.590;9.922;2023-06-22T19:55:11;27.60;33.30
44729;DHT22;30457;53.590;9.922;2023-06-22T19:59:40;27.50;33.00
44729;DHT22;30457;53.590;9.922;2023-06-22T20:04:05;27.50;33.00
44729;DHT22;30457;53.590;9.922;2023-06-22T20:08:45;27.40;33.00
44729;DHT22;30457;53.590;9.922;2023-06-22T20:13:16;27.30;33.70
44729;DHT22;30457;53.590;9.922;2023-06-22T20:17:44;27.30;34.10
44729;DHT22;30457;53.590;9.922;2023-06-22T20:22:14;27.30;34.40
44729;DHT22;30457;53.590;9.922;2023-06-22T20:26:44;27.20;34.30
44729;DHT22;30457;53.590;9.922;2023-06-22T20:31:10;27.10;35.20
44729;DHT22;30457;53.590;9.922;2023-06-22T20:35:37;27.00;35.30
44729;DHT22;30457;53.590;9.922;2023-06-22T20:40:03;26.90;35.80
44729;DHT22;30457;53.590;9.922;2023-06-22T20:44:30;26.80;36.60
44729;DHT22;30457;53.590;9.922;2023-06-22T20:48:56;26.70;37.40
44729;DHT22;30457;53.590;9.922;2023-06-22T20:53:23;26.60;38.50
44729;DHT22;30457;53.590;9.922;2023-06-22T20:57:49;26.40;38.80
44729;DHT22;30457;53.590;9.922;2023-06-22T21:02:14;26.30;39.80
44729;DHT22;30457;53.590;9.922;2023-06-22T21:06:41;26.20;40.60
44729;DHT22;30457;53.590;9.922;2023-06-22T21:11:06;26.10;41.50
44729;DHT22;30457;53.590;9.922;2023-06-22T21:15:32;25.90;41.50
44729;DHT22;30457;53.590;9.922;2023-06-22T21:19:57;25.80;42.60
44729;DHT22;30457;53.590;9.922;2023-06-22T21:24:23;25.70;43.10
44729;DHT22;30457;53.590;9.922;2023-06-22T21:28:49;25.60;43.80
44729;DHT22;30457;53.590;9.922;2023-06-22T21:33:14;25.40;43.60
44729;DHT22;30457;53.590;9.922;2023-06-22T21:37:41;25.20;44.50
44729;DHT22;30457;53.590;9.922;2023-06-22T21:42:07;24.90;44.60
44729;DHT22;30457;53.590;9.922;2023-06-22T21:46:33;24.70;45.10
44729;DHT22;30457;53.590;9.922;2023-06-22T21:50:58;24.60;45.70
44729;DHT22;30457;53.590;9.922;2023-06-22T21:55:24;24.30;45.90
44729;DHT22;30457;53.590;9.922;2023-06-22T21:59:49;24.20;46.20
44729;DHT22;30457;53.590;9.922;2023-06-22T22:04:15;24.00;46.40
44729;DHT22;30457;53.590;9.922;2023-06-22T22:08:40;23.90;46.60
44729;DHT22;30457;53.590;9.922;2023-06-22T22:13:06;23.80;46.90
44729;DHT22;30457;53.590;9.922;2023-06-22T22:17:31;23.70;47.40
44729;DHT22;30457;53.590;9.922;2023-06-22T22:21:57;23.60;47.90
44729;DHT22;30457;53.590;9.922;2023-06-22T22:26:23;23.50;48.10
44729;DHT22;30457;53.590;9.922;2023-06-22T22:30:48;23.40;48.50
44729;DHT22;30457;53.590;9.922;2023-06-22T22:35:14;23.40;49.10
44729;DHT22;30457;53.590;9.922;2023-06-22T22:39:40;23.40;49.20
44729;DHT22;30457;53.590;9.922;2023-06-22T22:44:05;23.40;49.40
44729;DHT22;30457;53.590;9.922;2023-06-22T22:48:31;23.30;49.20
44729;DHT22;30457;53.590;9.922;2023-06-22T22:52:57;23.30;49.20
44729;DHT22;30457;53.590;9.922;2023-06-22T22:57:22;23.30;49.40
44729;DHT22;30457;53.590;9.922;2023-06-22T23:01:48;23.20;49.60
44729;DHT22;30457;53.590;9.922;2023-06-22T23:06:13;23.20;50.30
44729;DHT22;30457;53.590;9.922;2023-06-22T23:10:39;23.10;50.30
44729;DHT22;30457;53.590;9.922;2023-06-22T23:15:05;23.10;50.60
44729;DHT22;30457;53.590;9.922;2023-06-22T23:19:31;23.10;51.00
44729;DHT22;30457;53.590;9.922;2023-06-22T23:23:59;23.00;51.10
44729;DHT22;30457;53.590;9.922;2023-06-22T23:28:24;23.00;51.90
44729;DHT22;30457;53.590;9.922;2023-06-22T23:32:50;23.00;51.40
44729;DHT22;30457;53.590;9.922;2023-06-22T23:37:15;23.00;51.40
44729;DHT22;30457;53.590;9.922;2023-06-22T23:41:41;23.00;51.40
44729;DHT22;30457;53.590;9.922;2023-06-22T23:46:07;23.00;51.40
44729;DHT22;30457;53.590;9.922;2023-06-22T23:50:32;22.90;51.50
44729;DHT22;30457;53.590;9.922;2023-06-22T23:54:58;22.90;52.00
44729;DHT22;30457;53.590;9.922;2023-06-22T23:59:23;22.90;52.10
